createdAt,value
2018-06-19T00:11:10.727Z,7.93
2018-06-19T00:13:39.268Z,8.27
2018-06-19T00:16:07.560Z,8.30
2018-06-19T00:18:37.018Z,8.30
2018-06-19T00:21:07.633Z,8.13
2018-06-19T00:23:35.508Z,8.33
2018-06-19T00:26:03.423Z,8.90
2018-06-19T00:28:31.389Z,9.07
2018-06-19T00:30:59.117Z,8.90
2018-06-19T00:33:26.985Z,9.40
2018-06-19T00:35:54.971Z,9.20
2018-06-19T00:38:22.837Z,8.73
2018-06-19T00:40:50.679Z,8.57
2018-06-19T00:43:18.531Z,8.50
2018-06-19T00:45:46.638Z,8.40
2018-06-19T00:48:15.075Z,8.10
2018-06-19T00:50:43.061Z,8.30
2018-06-19T00:53:10.976Z,8.40
2018-06-19T00:58:23.343Z,8.20
2018-06-19T01:00:51.323Z,8.10
2018-06-19T01:03:19.441Z,7.90
2018-06-19T01:05:47.361Z,7.57
2018-06-19T01:08:16.048Z,7.73
2018-06-19T01:10:44.324Z,7.17
2018-06-19T01:13:12.297Z,7.70
2018-06-19T01:15:41.214Z,7.50
2018-06-19T01:18:09.292Z,7.57
2018-06-19T01:20:37.181Z,7.37
2018-06-19T01:23:05.304Z,7.97
2018-06-19T01:25:33.862Z,7.90
2018-06-19T01:28:01.786Z,8.80
2018-06-19T01:30:29.630Z,7.20
2018-06-19T01:32:57.577Z,7.07
2018-06-19T01:35:26.408Z,7.17
2018-06-19T01:37:54.356Z,7.47
2018-06-19T01:40:22.218Z,6.97
2018-06-19T01:42:50.095Z,7.33
2018-06-19T01:45:18.739Z,6.70
2018-06-19T01:47:47.129Z,7.27
2018-06-19T01:50:15.125Z,7.23
2018-06-19T01:52:43.008Z,7.00
2018-06-19T01:55:10.855Z,6.80
2018-06-19T01:57:38.975Z,7.10
2018-06-19T02:00:06.765Z,6.57
2018-06-19T02:02:34.537Z,7.27
2018-06-19T02:05:02.271Z,6.63
2018-06-19T02:07:30.036Z,7.13
2018-06-19T02:09:57.709Z,7.10
2018-06-19T02:12:25.576Z,7.30
2018-06-19T02:14:54.188Z,7.73
2018-06-19T02:17:21.859Z,7.50
2018-06-19T02:19:49.455Z,7.90
2018-06-19T02:22:18.572Z,6.90
2018-06-19T02:24:46.968Z,7.53
2018-06-19T02:27:15.288Z,8.27
2018-06-19T02:29:43.324Z,8.93
2018-06-19T02:45:11.612Z,8.60
2018-06-19T02:47:40.832Z,9.10
2018-06-19T02:50:09.027Z,8.97
2018-06-19T02:52:36.954Z,9.87
2018-06-19T02:55:05.004Z,9.17
2018-06-19T02:57:33.317Z,9.50
2018-06-19T03:00:02.906Z,11.03
2018-06-19T03:02:30.632Z,10.40
2018-06-19T03:04:58.469Z,10.37
2018-06-19T03:07:26.768Z,11.27
2018-06-19T03:09:55.399Z,10.90
2018-06-19T03:12:23.928Z,11.03
2018-06-19T03:14:52.624Z,10.93
2018-06-19T03:17:21.251Z,11.83
2018-06-19T03:19:49.108Z,10.80
2018-06-19T03:22:17.716Z,11.87
2018-06-19T03:24:45.632Z,11.53
2018-06-19T03:27:13.576Z,12.07
2018-06-19T03:29:41.526Z,10.70
2018-06-19T03:32:10.025Z,10.70
2018-06-19T03:47:38.151Z,10.60
2018-06-19T03:50:06.899Z,8.37
2018-06-19T03:52:34.998Z,7.87
2018-06-19T03:55:02.960Z,7.43
2018-06-19T03:57:31.289Z,7.80
2018-06-19T03:59:59.911Z,7.23
2018-06-19T04:02:27.858Z,7.20
2018-06-19T04:04:56.438Z,6.87
2018-06-19T04:07:24.724Z,6.65
2018-06-19T04:09:52.892Z,6.42
2018-06-19T04:12:20.794Z,7.25
2018-06-19T04:14:48.754Z,6.70
2018-06-19T04:17:24.464Z,6.50
2018-06-19T04:19:52.773Z,6.35
2018-06-19T04:22:21.577Z,6.70
2018-06-19T04:24:49.924Z,6.35
2018-06-19T04:27:17.880Z,6.47
2018-06-19T04:29:47.236Z,7.42
2018-06-19T04:32:15.888Z,6.65
2018-06-19T04:34:43.760Z,6.47
2018-06-19T04:37:11.961Z,6.15
2018-06-19T04:39:39.836Z,6.47
2018-06-19T04:42:07.772Z,6.05
2018-06-19T04:44:35.536Z,6.20
2018-06-19T04:47:03.907Z,6.47
2018-06-19T04:49:33.357Z,5.35
2018-06-19T04:52:01.268Z,5.28
2018-06-19T04:54:29.282Z,5.12
2018-06-19T04:56:57.020Z,5.72
2018-06-19T04:59:25.074Z,5.37
2018-06-19T05:01:52.866Z,4.50
2018-06-19T05:04:20.784Z,5.53
2018-06-19T05:06:48.701Z,5.37
2018-06-19T05:09:17.843Z,5.58
2018-06-19T05:11:46.119Z,5.03
2018-06-19T05:14:13.919Z,5.03
2018-06-19T05:16:42.274Z,4.80
2018-06-19T05:19:10.300Z,4.67
2018-06-19T05:21:38.733Z,4.62
2018-06-19T05:24:06.510Z,4.67
2018-06-19T05:26:34.464Z,4.40
2018-06-19T05:29:03.193Z,4.28
2018-06-19T05:31:31.528Z,4.53
2018-06-19T05:34:00.073Z,4.60
2018-06-19T05:36:28.188Z,4.42
2018-06-19T05:38:56.786Z,4.10
2018-06-19T05:41:24.616Z,3.92
2018-06-19T05:43:53.560Z,4.05
2018-06-19T05:46:22.457Z,3.92
2018-06-19T05:48:50.474Z,4.58
2018-06-19T05:51:19.294Z,4.00
2018-06-19T05:53:47.179Z,4.03
2018-06-19T05:56:15.388Z,4.22
2018-06-19T05:58:43.628Z,4.20
2018-06-19T06:01:11.628Z,4.00
2018-06-19T06:03:39.433Z,3.80
2018-06-19T06:19:08.052Z,3.70
2018-06-19T06:21:37.014Z,4.08
2018-06-19T06:24:05.580Z,3.58
2018-06-19T06:26:33.473Z,3.17
2018-06-19T06:29:01.426Z,3.20
2018-06-19T06:31:30.024Z,3.80
2018-06-19T06:33:58.771Z,4.33
2018-06-19T06:36:26.808Z,3.60
2018-06-19T06:38:55.200Z,4.00
2018-06-19T06:41:23.059Z,3.75
2018-06-19T06:43:51.124Z,3.25
2018-06-19T06:46:19.547Z,3.58
2018-06-19T06:48:47.580Z,3.72
2018-06-19T06:51:15.589Z,3.47
2018-06-19T06:53:43.535Z,3.92
2018-06-19T06:56:11.462Z,3.35
2018-06-19T06:58:39.402Z,2.90
2018-06-19T07:01:08.089Z,3.00
2018-06-19T07:03:36.088Z,3.35
2018-06-19T07:06:04.082Z,3.12
2018-06-19T07:08:32.150Z,3.27
2018-06-19T07:11:00.026Z,3.17
2018-06-19T07:13:28.232Z,3.37
2018-06-19T07:15:56.688Z,3.62
2018-06-19T07:18:25.265Z,3.05
2018-06-19T07:20:53.284Z,3.20
2018-06-19T07:23:21.269Z,3.30
2018-06-19T07:25:49.745Z,3.37
2018-06-19T07:28:17.584Z,3.12
2018-06-19T07:30:45.485Z,3.52
2018-06-19T07:33:13.286Z,2.92
2018-06-19T07:35:42.345Z,2.45
2018-06-19T07:38:10.372Z,2.58
2018-06-19T07:40:40.660Z,2.60
2018-06-19T07:43:08.616Z,2.72
2018-06-19T07:45:36.445Z,2.60
2018-06-19T07:48:04.436Z,2.52
2018-06-19T07:50:41.308Z,2.70
2018-06-19T08:02:54.689Z,2.92
2018-06-19T08:05:22.577Z,2.70
2018-06-19T08:07:50.627Z,2.67
2018-06-19T08:10:18.529Z,2.45
2018-06-19T08:12:47.604Z,2.40
2018-06-19T08:15:16.820Z,2.62
2018-06-19T08:17:44.920Z,2.58
2018-06-19T08:20:13.834Z,2.80
2018-06-19T08:22:42.077Z,2.70
2018-06-19T08:25:10.160Z,2.60
2018-06-19T08:27:38.852Z,2.83
2018-06-19T08:30:06.930Z,2.33
2018-06-19T08:32:34.916Z,2.60
2018-06-19T08:35:02.893Z,2.45
2018-06-19T08:37:31.212Z,2.45
2018-06-19T08:39:59.223Z,2.40
2018-06-19T08:42:27.854Z,2.50
2018-06-19T08:44:55.943Z,2.40
2018-06-19T08:47:24.045Z,2.47
2018-06-19T08:49:52.713Z,2.55
2018-06-19T08:52:20.852Z,2.60
2018-06-19T09:07:49.159Z,2.37
2018-06-19T09:10:18.096Z,2.42
2018-06-19T09:12:45.956Z,2.22
2018-06-19T09:15:13.993Z,2.60
2018-06-19T09:17:42.036Z,2.83
2018-06-19T09:20:10.085Z,2.30
2018-06-19T09:22:38.092Z,2.60
2018-06-19T09:25:06.161Z,2.25
2018-06-19T09:27:34.382Z,2.47
2018-06-19T09:30:02.508Z,2.40
2018-06-19T09:32:31.699Z,2.25
2018-06-19T09:34:59.408Z,2.30
2018-06-19T09:37:27.356Z,2.42
2018-06-19T09:39:55.258Z,2.50
2018-06-19T09:42:23.159Z,2.60
2018-06-19T09:44:50.972Z,2.87
2018-06-19T09:47:18.849Z,2.40
2018-06-19T09:49:46.724Z,2.62
2018-06-19T09:52:14.622Z,2.60
2018-06-19T09:54:43.211Z,2.52
2018-06-19T09:57:11.047Z,2.70
2018-06-19T09:59:38.999Z,2.80
2018-06-19T10:02:06.908Z,3.00
2018-06-19T10:04:34.772Z,2.30
2018-06-19T10:07:02.709Z,2.47
2018-06-19T10:09:30.627Z,2.15
2018-06-19T10:11:58.580Z,2.60
2018-06-19T10:14:27.017Z,2.85
2018-06-19T10:16:54.939Z,2.67
2018-06-19T10:19:23.509Z,3.98
2018-06-19T10:21:51.640Z,2.70
2018-06-19T10:24:19.597Z,2.83
2018-06-19T10:26:47.421Z,2.60
2018-06-19T10:29:15.377Z,2.60
2018-06-19T10:31:43.691Z,2.27
2018-06-19T10:34:11.716Z,2.37
2018-06-19T10:36:39.631Z,2.33
2018-06-19T10:39:08.511Z,2.20
2018-06-19T10:41:36.385Z,2.10
2018-06-19T10:44:04.349Z,2.65
2018-06-19T10:46:32.264Z,2.55
2018-06-19T10:49:00.929Z,2.40
2018-06-19T10:51:29.085Z,2.40
2018-06-19T10:53:57.683Z,2.42
2018-06-19T10:56:25.520Z,2.62
2018-06-19T10:58:53.388Z,2.25
2018-06-19T11:01:21.316Z,2.40
2018-06-19T11:03:49.352Z,2.62
2018-06-19T11:06:17.300Z,2.35
2018-06-19T11:08:45.141Z,2.90
2018-06-19T11:11:13.056Z,2.40
2018-06-19T11:13:41.084Z,2.00
2018-06-19T11:16:08.966Z,2.50
2018-06-19T11:18:36.924Z,2.67
2018-06-19T11:40:35.548Z,2.70
2018-06-19T11:43:03.500Z,2.15
2018-06-19T11:45:32.209Z,2.40
2018-06-19T11:48:00.105Z,2.27
2018-06-19T11:50:27.942Z,2.55
2018-06-19T11:52:55.852Z,2.67
2018-06-19T11:55:23.696Z,2.80
2018-06-19T11:57:51.653Z,2.87
2018-06-19T12:00:19.828Z,2.60
2018-06-19T12:02:47.760Z,2.65
2018-06-19T12:05:15.791Z,2.60
2018-06-19T12:07:45.069Z,2.60
2018-06-19T12:10:13.116Z,2.70
2018-06-19T12:12:41.025Z,2.15
2018-06-19T12:15:09.296Z,2.37
2018-06-19T12:17:37.775Z,2.92
2018-06-19T12:20:06.049Z,2.40
2018-06-19T12:22:33.920Z,2.25
2018-06-19T12:25:02.464Z,2.65
2018-06-19T12:27:30.414Z,2.30
2018-06-19T12:29:58.432Z,2.20
2018-06-19T12:32:27.114Z,2.40
2018-06-19T12:34:55.020Z,2.33
2018-06-19T12:37:22.949Z,2.40
2018-06-19T12:39:50.800Z,2.00
2018-06-19T12:42:18.752Z,10.68
2018-06-19T12:44:48.419Z,2.15
2018-06-19T12:47:16.343Z,1.98
2018-06-19T12:49:49.722Z,2.33
2018-06-19T12:52:23.315Z,1.92
2018-06-19T12:54:56.133Z,1.85
2018-06-19T12:57:24.164Z,1.90
2018-06-19T12:59:52.096Z,2.00
2018-06-19T13:02:20.713Z,2.45
2018-06-19T13:04:54.043Z,2.00
2018-06-19T13:07:22.317Z,2.27
2018-06-19T13:09:50.161Z,2.40
2018-06-19T13:12:23.435Z,2.75
2018-06-19T13:14:51.429Z,2.72
2018-06-19T13:17:24.655Z,2.37
2018-06-19T13:20:06.316Z,2.60
2018-06-19T13:22:35.154Z,2.60
2018-06-19T13:25:03.164Z,2.80
2018-06-19T13:27:31.148Z,3.00
2018-06-19T13:30:13.435Z,3.20
2018-06-19T13:32:41.582Z,3.33
2018-06-19T13:35:09.700Z,2.80
2018-06-19T13:37:38.620Z,2.87
2018-06-19T13:41:12.444Z,2.95
2018-06-19T13:43:46.054Z,2.50
2018-06-19T13:46:14.298Z,3.08
2018-06-19T13:48:42.768Z,2.50
2018-06-19T13:51:11.347Z,2.60
2018-06-19T13:53:39.632Z,2.70
2018-06-19T13:56:13.032Z,2.58
2018-06-19T13:58:40.897Z,2.87
2018-06-19T14:01:09.281Z,2.80
2018-06-19T14:03:38.039Z,2.98
2018-06-19T14:06:05.881Z,2.75
2018-06-19T14:09:06.454Z,2.72
2018-06-19T14:11:39.764Z,2.80
2018-06-19T14:14:07.764Z,2.72
2018-06-19T14:16:36.612Z,2.60
2018-06-19T14:19:05.236Z,2.87
2018-06-19T14:21:33.146Z,2.72
2018-06-19T14:24:01.475Z,3.10
2018-06-19T14:26:30.289Z,3.10
2018-06-19T14:28:58.444Z,3.17
2018-06-19T14:31:27.874Z,3.08
2018-06-19T14:33:55.894Z,3.12
2018-06-19T14:36:23.981Z,3.00
2018-06-19T14:38:52.214Z,2.90
2018-06-19T14:41:20.708Z,2.60
2018-06-19T14:43:52.462Z,2.80
2018-06-19T14:46:20.528Z,2.90
2018-06-19T14:48:48.600Z,3.00
2018-06-19T14:51:16.713Z,3.10
2018-06-19T14:53:46.997Z,3.20
2018-06-19T14:56:15.091Z,3.15
2018-06-19T15:11:43.566Z,2.83
2018-06-19T15:14:13.313Z,3.30
2018-06-19T15:16:41.660Z,3.33
2018-06-19T15:19:10.645Z,2.85
2018-06-19T15:21:39.141Z,3.27
2018-06-19T15:24:07.191Z,3.20
2018-06-19T15:26:35.577Z,3.30
2018-06-19T15:29:05.148Z,3.30
2018-06-19T15:31:33.432Z,3.25
2018-06-19T15:34:01.289Z,2.90
2018-06-19T15:36:29.487Z,3.42
2018-06-19T15:38:57.525Z,3.60
2018-06-19T15:41:26.155Z,2.85
2018-06-19T15:43:57.848Z,3.65
2018-06-19T15:46:25.737Z,3.58
2018-06-19T15:48:55.268Z,3.60
2018-06-19T15:51:23.284Z,3.40
2018-06-19T15:53:51.291Z,4.08
2018-06-19T16:09:19.437Z,3.65
2018-06-19T16:11:47.421Z,3.67
2018-06-19T16:14:15.922Z,3.50
2018-06-19T16:16:44.204Z,3.70
2018-06-19T16:19:12.848Z,3.50
2018-06-19T16:21:41.820Z,3.42
2018-06-19T16:24:10.035Z,3.20
2018-06-19T16:42:53.990Z,3.33
2018-06-19T16:45:22.268Z,3.55
2018-06-19T16:47:50.708Z,3.85
2018-06-19T16:50:19.949Z,3.83
2018-06-19T16:52:47.949Z,3.62
2018-06-19T16:55:16.734Z,4.15
2018-06-19T16:57:48.064Z,3.67
2018-06-19T17:00:16.641Z,3.65
2018-06-19T17:02:44.629Z,3.70
2018-06-19T17:05:13.572Z,3.75
2018-06-19T17:07:43.217Z,3.98
2018-06-19T17:10:12.506Z,3.62
2018-06-19T17:12:40.553Z,4.10
2018-06-19T17:15:08.606Z,4.47
2018-06-19T17:17:36.736Z,3.90
2018-06-19T17:20:05.045Z,3.47
2018-06-19T17:22:33.306Z,3.27
2018-06-19T17:25:01.318Z,3.58
2018-06-19T17:27:29.412Z,4.00
2018-06-19T17:29:57.643Z,3.95
2018-06-19T17:32:25.569Z,3.60
2018-06-19T17:34:53.573Z,3.87
2018-06-19T17:37:21.499Z,4.15
2018-06-19T17:39:50.176Z,3.75
2018-06-19T17:42:18.653Z,4.03
2018-06-19T17:44:47.740Z,3.75
2018-06-19T17:47:15.984Z,4.08
2018-06-19T17:49:43.873Z,3.98
2018-06-19T17:52:11.981Z,4.08
2018-06-19T17:54:40.131Z,4.00
2018-06-19T17:57:08.227Z,4.20
2018-06-19T17:59:39.126Z,4.08
2018-06-19T18:02:07.453Z,4.03
2018-06-19T18:04:35.418Z,3.87
2018-06-19T18:07:03.351Z,4.35
2018-06-19T18:09:31.426Z,4.05
2018-06-19T18:11:59.700Z,4.15
2018-06-19T18:14:27.661Z,3.77
2018-06-19T18:16:56.053Z,4.03
2018-06-19T18:19:23.917Z,4.05
2018-06-19T18:21:53.019Z,4.05
2018-06-19T18:24:21.993Z,3.50
2018-06-19T18:26:50.702Z,3.83
2018-06-19T18:29:18.748Z,3.83
2018-06-19T18:31:46.815Z,3.80
2018-06-19T18:34:14.903Z,3.55
2018-06-19T18:36:42.858Z,3.65
2018-06-19T18:39:11.868Z,3.47
2018-06-19T18:41:40.227Z,3.42
2018-06-19T18:44:08.541Z,4.00
2018-06-19T18:46:43.211Z,4.53
2018-06-19T18:49:25.191Z,3.95
2018-06-19T18:51:55.642Z,4.30
2018-06-19T18:54:36.895Z,4.10
2018-06-19T18:57:10.034Z,4.20
2018-06-19T18:59:38.405Z,4.50
2018-06-19T19:02:06.891Z,4.08
2018-06-19T19:04:34.969Z,4.75
2018-06-19T19:07:14.439Z,4.47
2018-06-19T19:09:47.293Z,4.80
2018-06-19T19:12:21.451Z,4.70
2018-06-19T19:14:54.922Z,4.30
2018-06-19T19:17:27.995Z,4.87
2018-06-19T19:19:55.968Z,4.92
2018-06-19T19:22:23.845Z,4.60
2018-06-19T19:24:52.272Z,4.80
2018-06-19T19:27:31.811Z,4.67
2018-06-19T19:30:01.408Z,4.87
2018-06-19T19:32:30.610Z,4.80
2018-06-19T19:34:59.514Z,4.80
2018-06-19T19:37:33.433Z,4.90
2018-06-19T19:40:01.381Z,5.00
2018-06-19T19:42:29.924Z,4.93
2018-06-19T19:44:57.944Z,5.07
2018-06-19T19:47:32.844Z,4.60
2018-06-19T19:50:01.081Z,4.93
2018-06-19T19:52:29.656Z,4.90
2018-06-19T19:54:57.952Z,5.03
2018-06-19T19:58:40.423Z,5.07
2018-06-19T20:01:08.417Z,4.87
2018-06-19T20:03:38.005Z,4.77
2018-06-19T20:06:07.946Z,5.30
2018-06-19T20:08:36.646Z,5.07
2018-06-19T20:11:05.338Z,4.93
2018-06-19T20:14:03.397Z,5.53
2018-06-19T20:16:31.860Z,5.43
2018-06-19T20:18:59.872Z,5.00
2018-06-19T20:21:28.605Z,5.57
2018-06-19T20:23:56.780Z,5.80
2018-06-19T20:26:24.815Z,5.63
2018-06-19T20:28:53.820Z,5.50
2018-06-19T20:31:21.888Z,5.27
2018-06-19T20:33:49.973Z,6.30
2018-06-19T20:36:20.229Z,5.60
2018-06-19T20:38:49.009Z,5.77
2018-06-19T20:41:17.276Z,6.10
2018-06-19T20:43:45.537Z,5.80
2018-06-19T20:46:16.604Z,5.90
2018-06-19T20:48:44.693Z,5.83
2018-06-19T20:51:12.840Z,6.30
2018-06-19T20:53:40.691Z,6.63
2018-06-19T20:56:08.703Z,6.27
2018-06-19T20:58:36.766Z,6.53
2018-06-19T21:01:04.758Z,6.63
2018-06-19T21:03:33.269Z,7.13
2018-06-19T21:06:01.326Z,6.80
2018-06-19T21:08:34.613Z,7.30
2018-06-19T21:11:29.745Z,8.43
2018-06-19T21:13:57.918Z,7.50
2018-06-19T21:16:27.076Z,6.70
2018-06-19T21:18:55.698Z,7.07
2018-06-19T21:31:10.659Z,6.83
2018-06-19T21:33:39.192Z,6.77
2018-06-19T21:36:07.770Z,7.60
2018-06-19T21:38:36.708Z,7.50
2018-06-19T21:41:04.713Z,7.27
2018-06-19T21:43:36.115Z,7.40
2018-06-19T21:46:05.925Z,7.80
2018-06-19T21:48:51.801Z,7.43
2018-06-19T21:51:21.024Z,7.13
2018-06-19T21:53:49.053Z,8.07
2018-06-19T21:56:17.332Z,7.60
2018-06-19T21:58:45.451Z,7.67
2018-06-19T22:01:13.332Z,7.80
2018-06-19T22:03:41.895Z,8.37
2018-06-19T22:06:09.941Z,8.03
2018-06-19T22:08:57.991Z,7.90
2018-06-19T22:11:42.562Z,7.93
2018-06-19T22:14:12.406Z,8.33
2018-06-19T22:16:41.104Z,7.63
2018-06-19T22:19:09.056Z,7.50
2018-06-19T22:21:37.643Z,8.33
2018-06-19T22:24:05.699Z,7.97
2018-06-19T22:26:58.353Z,7.83
2018-06-19T22:29:26.404Z,7.47
2018-06-19T22:31:54.834Z,8.03
2018-06-19T22:34:22.742Z,7.50
2018-06-19T22:36:51.534Z,7.77
2018-06-19T22:39:19.585Z,7.67
2018-06-19T22:41:49.131Z,7.80
2018-06-19T22:44:18.508Z,7.90
2018-06-19T22:46:46.629Z,7.67
2018-06-19T22:49:14.744Z,8.07
2018-06-19T22:51:44.816Z,7.63
2018-06-19T22:54:13.208Z,7.77
2018-06-19T22:56:42.325Z,7.87
2018-06-19T22:59:11.455Z,8.30
2018-06-19T23:01:40.253Z,7.83
2018-06-19T23:04:09.536Z,8.67
2018-06-19T23:06:37.800Z,7.63
2018-06-19T23:09:07.187Z,7.30
2018-06-19T23:11:35.936Z,7.30
2018-06-19T23:14:04.289Z,8.30
2018-06-19T23:16:33.860Z,8.03
2018-06-19T23:19:03.700Z,8.30
2018-06-19T23:21:31.854Z,7.40
2018-06-19T23:23:59.824Z,8.20
2018-06-19T23:26:29.250Z,7.90
2018-06-19T23:28:57.916Z,8.50
2018-06-19T23:31:27.015Z,7.67
2018-06-19T23:33:55.424Z,7.80
2018-06-19T23:36:23.433Z,7.47
2018-06-19T23:38:51.421Z,8.73
2018-06-19T23:41:20.350Z,7.90
2018-06-19T23:43:48.199Z,8.40
2018-06-19T23:46:16.264Z,7.60
2018-06-19T23:48:44.193Z,7.30
2018-06-19T23:51:12.088Z,7.03
2018-06-19T23:53:40.764Z,7.80
2018-06-19T23:56:08.836Z,7.63
2018-06-19T23:58:36.704Z,7.70
